sensor_id;sensor_type;location;lat;lon;timestamp;pressure;altitude;pressure_sealevel;temperature;humidity
66742;BME280;53654;54.152;19.432;2023-03-03T00:00:56;101883.58;;;0.87;78.07
66742;BME280;53654;54.152;19.432;2023-03-03T00:03:25;101879.48;;;0.87;78.14
66742;BME280;53654;54.152;19.432;2023-03-03T00:05:54;101886.64;;;0.86;77.90
66742;BME280;53654;54.152;19.432;2023-03-03T00:08:22;101889.56;;;0.86;77.90
66742;BME280;53654;54.152;19.432;2023-03-03T00:10:50;101901.69;;;0.85;77.76
66742;BME280;53654;54.152;19.432;2023-03-03T00:13:24;101920.65;;;0.79;77.46
66742;BME280;53654;54.152;19.432;2023-03-03T00:16:09;101925.33;;;0.70;77.62
66742;BME280;53654;54.152;19.432;2023-03-03T00:18:41;101924.29;;;0.59;78.01
66742;BME280;53654;54.152;19.432;2023-03-03T00:23:51;101933.54;;;0.62;78.70
66742;BME280;53654;54.152;19.432;2023-03-03T00:28:51;101914.85;;;0.70;78.40
66742;BME280;53654;54.152;19.432;2023-03-03T00:31:32;101894.16;;;0.75;78.53
66742;BME280;53654;54.152;19.432;2023-03-03T00:34:26;101890.38;;;0.79;78.39
66742;BME280;53654;54.152;19.432;2023-03-03T00:36:57;101878.25;;;0.80;78.32
66742;BME280;53654;54.152;19.432;2023-03-03T00:39:35;101869.00;;;0.80;78.02
66742;BME280;53654;54.152;19.432;2023-03-03T00:42:12;101865.26;;;0.81;78.20
66742;BME280;53654;54.152;19.432;2023-03-03T00:44:45;101854.22;;;0.84;77.92
66742;BME280;53654;54.152;19.432;2023-03-03T00:49:53;101832.83;;;0.85;77.59
66742;BME280;53654;54.152;19.432;2023-03-03T00:52:23;101838.33;;;0.85;77.29
66742;BME280;53654;54.152;19.432;2023-03-03T00:54:54;101834.41;;;0.86;77.27
66742;BME280;53654;54.152;19.432;2023-03-03T00:57:22;101841.16;;;0.87;77.29
66742;BME280;53654;54.152;19.432;2023-03-03T00:59:51;101842.71;;;0.87;77.17
66742;BME280;53654;54.152;19.432;2023-03-03T01:02:19;101844.78;;;0.87;76.88
66742;BME280;53654;54.152;19.432;2023-03-03T01:04:50;101845.48;;;0.88;76.80
66742;BME280;53654;54.152;19.432;2023-03-03T01:07:19;101841.31;;;0.87;76.97
66742;BME280;53654;54.152;19.432;2023-03-03T01:09:47;101846.46;;;0.87;76.77
66742;BME280;53654;54.152;19.432;2023-03-03T01:12:15;101851.06;;;0.86;76.76
66742;BME280;53654;54.152;19.432;2023-03-03T01:14:43;101856.15;;;0.85;76.51
66742;BME280;53654;54.152;19.432;2023-03-03T01:17:12;101855.95;;;0.84;76.55
66742;BME280;53654;54.152;19.432;2023-03-03T01:19:40;101864.52;;;0.84;76.56
66742;BME280;53654;54.152;19.432;2023-03-03T01:22:08;101861.30;;;0.81;76.35
66742;BME280;53654;54.152;19.432;2023-03-03T01:24:36;101857.81;;;0.80;76.33
66742;BME280;53654;54.152;19.432;2023-03-03T01:27:05;101855.20;;;0.79;76.31
66742;BME280;53654;54.152;19.432;2023-03-03T01:29:33;101845.38;;;0.79;76.12
66742;BME280;53654;54.152;19.432;2023-03-03T01:32:01;101845.46;;;0.77;75.84
66742;BME280;53654;54.152;19.432;2023-03-03T01:34:29;101838.81;;;0.74;75.98
66742;BME280;53654;54.152;19.432;2023-03-03T01:36:58;101834.45;;;0.73;75.84
66742;BME280;53654;54.152;19.432;2023-03-03T01:39:28;101833.20;;;0.72;75.78
66742;BME280;53654;54.152;19.432;2023-03-03T01:41:56;101831.77;;;0.71;75.67
66742;BME280;53654;54.152;19.432;2023-03-03T01:44:24;101830.84;;;0.69;75.40
66742;BME280;53654;54.152;19.432;2023-03-03T01:47:12;101821.33;;;0.68;75.42
66742;BME280;53654;54.152;19.432;2023-03-03T01:49:57;101825.90;;;0.63;75.52
66742;BME280;53654;54.152;19.432;2023-03-03T01:55:07;101819.80;;;0.57;75.54
66742;BME280;53654;54.152;19.432;2023-03-03T01:57:45;101819.30;;;0.55;75.40
66742;BME280;53654;54.152;19.432;2023-03-03T02:00:15;101811.81;;;0.53;75.45
66742;BME280;53654;54.152;19.432;2023-03-03T02:02:44;101804.20;;;0.51;75.38
66742;BME280;53654;54.152;19.432;2023-03-03T02:05:14;101807.59;;;0.50;75.44
66742;BME280;53654;54.152;19.432;2023-03-03T02:07:44;101808.08;;;0.50;75.19
66742;BME280;53654;54.152;19.432;2023-03-03T02:10:16;101806.89;;;0.50;75.30
66742;BME280;53654;54.152;19.432;2023-03-03T02:12:48;101802.96;;;0.51;75.48
66742;BME280;53654;54.152;19.432;2023-03-03T02:15:23;101799.76;;;0.52;75.51
66742;BME280;53654;54.152;19.432;2023-03-03T02:17:56;101795.55;;;0.50;75.30
66742;BME280;53654;54.152;19.432;2023-03-03T02:29:03;101806.15;;;0.36;75.28
66742;BME280;53654;54.152;19.432;2023-03-03T02:31:31;101802.24;;;0.36;75.43
66742;BME280;53654;54.152;19.432;2023-03-03T02:34:00;101794.48;;;0.36;75.08
66742;BME280;53654;54.152;19.432;2023-03-03T02:36:31;101787.13;;;0.36;75.06
66742;BME280;53654;54.152;19.432;2023-03-03T02:39:19;101793.36;;;0.37;75.17
66742;BME280;53654;54.152;19.432;2023-03-03T02:41:59;101789.95;;;0.34;75.06
66742;BME280;53654;54.152;19.432;2023-03-03T02:44:34;101789.70;;;0.32;75.29
66742;BME280;53654;54.152;19.432;2023-03-03T02:47:03;101784.46;;;0.34;75.32
66742;BME280;53654;54.152;19.432;2023-03-03T02:49:34;101788.81;;;0.35;75.39
66742;BME280;53654;54.152;19.432;2023-03-03T02:52:06;101794.55;;;0.37;75.41
66742;BME280;53654;54.152;19.432;2023-03-03T02:54:37;101799.46;;;0.39;75.19
66742;BME280;53654;54.152;19.432;2023-03-03T02:57:06;101794.55;;;0.40;75.00
66742;BME280;53654;54.152;19.432;2023-03-03T02:59:35;101792.98;;;0.40;75.03
66742;BME280;53654;54.152;19.432;2023-03-03T03:02:14;101798.23;;;0.38;74.90
66742;BME280;53654;54.152;19.432;2023-03-03T03:04:42;101798.56;;;0.38;75.04
66742;BME280;53654;54.152;19.432;2023-03-03T03:07:12;101797.09;;;0.39;75.23
66742;BME280;53654;54.152;19.432;2023-03-03T03:09:40;101799.52;;;0.40;74.98
66742;BME280;53654;54.152;19.432;2023-03-03T03:12:09;101798.52;;;0.41;75.09
66742;BME280;53654;54.152;19.432;2023-03-03T03:14:38;101795.98;;;0.41;75.22
66742;BME280;53654;54.152;19.432;2023-03-03T03:17:06;101785.93;;;0.43;75.29
66742;BME280;53654;54.152;19.432;2023-03-03T03:19:34;101782.56;;;0.44;75.19
66742;BME280;53654;54.152;19.432;2023-03-03T03:22:02;101776.94;;;0.45;75.36
66742;BME280;53654;54.152;19.432;2023-03-03T03:24:32;101773.85;;;0.45;75.17
66742;BME280;53654;54.152;19.432;2023-03-03T03:27:02;101776.10;;;0.46;75.36
66742;BME280;53654;54.152;19.432;2023-03-03T03:29:31;101773.52;;;0.45;75.36
66742;BME280;53654;54.152;19.432;2023-03-03T03:32:00;101767.08;;;0.47;75.20
66742;BME280;53654;54.152;19.432;2023-03-03T03:34:28;101772.05;;;0.47;75.12
66742;BME280;53654;54.152;19.432;2023-03-03T03:36:56;101776.80;;;0.50;75.23
66742;BME280;53654;54.152;19.432;2023-03-03T03:39:24;101776.83;;;0.50;75.08
66742;BME280;53654;54.152;19.432;2023-03-03T03:41:53;101776.37;;;0.47;74.82
66742;BME280;53654;54.152;19.432;2023-03-03T03:44:21;101775.41;;;0.46;74.69
66742;BME280;53654;54.152;19.432;2023-03-03T03:46:50;101772.83;;;0.45;74.90
66742;BME280;53654;54.152;19.432;2023-03-03T03:49:19;101768.52;;;0.45;74.89
66742;BME280;53654;54.152;19.432;2023-03-03T03:51:48;101768.36;;;0.45;75.04
66742;BME280;53654;54.152;19.432;2023-03-03T03:54:18;101769.48;;;0.47;75.20
66742;BME280;53654;54.152;19.432;2023-03-03T03:56:46;101764.02;;;0.51;75.45
66742;BME280;53654;54.152;19.432;2023-03-03T03:59:14;101759.21;;;0.55;75.70
66742;BME280;53654;54.152;19.432;2023-03-03T04:01:42;101755.48;;;0.59;75.75
66742;BME280;53654;54.152;19.432;2023-03-03T04:04:10;101759.34;;;0.64;75.78
66742;BME280;53654;54.152;19.432;2023-03-03T04:06:39;101754.75;;;0.69;76.05
66742;BME280;53654;54.152;19.432;2023-03-03T04:09:08;101757.59;;;0.75;76.06
66742;BME280;53654;54.152;19.432;2023-03-03T04:11:36;101753.17;;;0.79;76.01
66742;BME280;53654;54.152;19.432;2023-03-03T04:14:05;101750.79;;;0.83;76.00
66742;BME280;53654;54.152;19.432;2023-03-03T04:16:34;101747.59;;;0.88;76.05
66742;BME280;53654;54.152;19.432;2023-03-03T04:19:03;101745.55;;;0.92;76.08
66742;BME280;53654;54.152;19.432;2023-03-03T04:21:32;101747.81;;;0.97;76.11
66742;BME280;53654;54.152;19.432;2023-03-03T04:24:00;101738.21;;;1.02;76.09
66742;BME280;53654;54.152;19.432;2023-03-03T04:26:28;101735.48;;;1.05;76.19
66742;BME280;53654;54.152;19.432;2023-03-03T04:28:58;101737.19;;;1.09;76.16
66742;BME280;53654;54.152;19.432;2023-03-03T04:31:26;101735.93;;;1.12;75.87
66742;BME280;53654;54.152;19.432;2023-03-03T04:33:55;101734.16;;;1.14;75.95
66742;BME280;53654;54.152;19.432;2023-03-03T04:36:24;101732.61;;;1.18;75.90
66742;BME280;53654;54.152;19.432;2023-03-03T04:38:52;101726.27;;;1.22;75.84
66742;BME280;53654;54.152;19.432;2023-03-03T04:41:21;101723.48;;;1.25;75.76
66742;BME280;53654;54.152;19.432;2023-03-03T04:43:49;101732.06;;;1.29;75.57
66742;BME280;53654;54.152;19.432;2023-03-03T04:46:17;101731.16;;;1.32;75.61
66742;BME280;53654;54.152;19.432;2023-03-03T04:48:46;101734.20;;;1.34;75.52
66742;BME280;53654;54.152;19.432;2023-03-03T04:51:14;101733.80;;;1.36;75.53
66742;BME280;53654;54.152;19.432;2023-03-03T04:53:44;101730.08;;;1.38;75.43
66742;BME280;53654;54.152;19.432;2023-03-03T04:56:13;101721.95;;;1.41;75.38
66742;BME280;53654;54.152;19.432;2023-03-03T04:58:41;101718.64;;;1.44;75.27
66742;BME280;53654;54.152;19.432;2023-03-03T05:01:13;101714.45;;;1.46;75.49
66742;BME280;53654;54.152;19.432;2023-03-03T05:03:41;101718.24;;;1.46;75.34
66742;BME280;53654;54.152;19.432;2023-03-03T05:06:10;101718.36;;;1.45;75.23
66742;BME280;53654;54.152;19.432;2023-03-03T05:08:38;101713.88;;;1.45;75.31
66742;BME280;53654;54.152;19.432;2023-03-03T05:11:06;101712.82;;;1.44;75.50
66742;BME280;53654;54.152;19.432;2023-03-03T05:13:34;101699.88;;;1.43;75.40
66742;BME280;53654;54.152;19.432;2023-03-03T05:16:03;101707.35;;;1.45;75.77
66742;BME280;53654;54.152;19.432;2023-03-03T05:18:32;101713.05;;;1.45;75.92
66742;BME280;53654;54.152;19.432;2023-03-03T05:21:00;101721.60;;;1.48;75.78
66742;BME280;53654;54.152;19.432;2023-03-03T05:23:28;101721.40;;;1.51;75.89
66742;BME280;53654;54.152;19.432;2023-03-03T05:25:56;101723.63;;;1.55;76.09
66742;BME280;53654;54.152;19.432;2023-03-03T05:28:24;101726.96;;;1.61;76.11
66742;BME280;53654;54.152;19.432;2023-03-03T05:30:53;101725.45;;;1.67;75.93
66742;BME280;53654;54.152;19.432;2023-03-03T05:33:20;101721.02;;;1.71;75.90
66742;BME280;53654;54.152;19.432;2023-03-03T05:35:53;101715.78;;;1.73;75.60
66742;BME280;53654;54.152;19.432;2023-03-03T05:38:23;101720.11;;;1.74;75.62
66742;BME280;53654;54.152;19.432;2023-03-03T05:40:51;101733.39;;;1.74;75.48
66742;BME280;53654;54.152;19.432;2023-03-03T05:43:19;101737.44;;;1.77;75.58
66742;BME280;53654;54.152;19.432;2023-03-03T05:45:53;101738.13;;;1.81;75.55
66742;BME280;53654;54.152;19.432;2023-03-03T05:48:21;101734.48;;;1.84;75.73
66742;BME280;53654;54.152;19.432;2023-03-03T05:50:49;101738.59;;;1.87;75.74
66742;BME280;53654;54.152;19.432;2023-03-03T05:53:17;101731.91;;;1.92;75.46
66742;BME280;53654;54.152;19.432;2023-03-03T05:55:45;101728.64;;;1.96;75.63
66742;BME280;53654;54.152;19.432;2023-03-03T05:58:13;101718.63;;;2.00;75.66
66742;BME280;53654;54.152;19.432;2023-03-03T06:00:41;101712.66;;;2.01;75.45
66742;BME280;53654;54.152;19.432;2023-03-03T06:03:10;101713.63;;;2.00;75.37
66742;BME280;53654;54.152;19.432;2023-03-03T06:05:38;101720.85;;;2.00;75.64
66742;BME280;53654;54.152;19.432;2023-03-03T06:08:06;101724.88;;;2.01;75.86
66742;BME280;53654;54.152;19.432;2023-03-03T06:10:35;101722.91;;;2.03;76.01
66742;BME280;53654;54.152;19.432;2023-03-03T06:13:03;101722.55;;;2.07;75.90
66742;BME280;53654;54.152;19.432;2023-03-03T06:15:31;101717.56;;;2.11;76.09
66742;BME280;53654;54.152;19.432;2023-03-03T06:18:00;101726.86;;;2.15;76.29
66742;BME280;53654;54.152;19.432;2023-03-03T06:20:28;101731.48;;;2.19;76.26
66742;BME280;53654;54.152;19.432;2023-03-03T06:22:56;101730.52;;;2.20;76.09
66742;BME280;53654;54.152;19.432;2023-03-03T06:25:24;101721.71;;;2.20;76.12
66742;BME280;53654;54.152;19.432;2023-03-03T06:27:52;101712.09;;;2.21;76.35
66742;BME280;53654;54.152;19.432;2023-03-03T06:30:21;101716.27;;;2.21;76.35
66742;BME280;53654;54.152;19.432;2023-03-03T06:32:49;101713.70;;;2.22;76.48
66742;BME280;53654;54.152;19.432;2023-03-03T06:35:17;101712.18;;;2.23;76.34
66742;BME280;53654;54.152;19.432;2023-03-03T06:37:45;101713.97;;;2.24;76.70
66742;BME280;53654;54.152;19.432;2023-03-03T06:40:13;101719.27;;;2.28;76.68
66742;BME280;53654;54.152;19.432;2023-03-03T06:42:41;101716.95;;;2.30;76.91
66742;BME280;53654;54.152;19.432;2023-03-03T06:45:10;101720.63;;;2.32;76.67
66742;BME280;53654;54.152;19.432;2023-03-03T06:47:39;101727.06;;;2.33;77.08
66742;BME280;53654;54.152;19.432;2023-03-03T06:50:09;101731.13;;;2.36;76.87
66742;BME280;53654;54.152;19.432;2023-03-03T06:52:38;101732.95;;;2.39;76.75
66742;BME280;53654;54.152;19.432;2023-03-03T06:55:12;101737.23;;;2.42;76.79
66742;BME280;53654;54.152;19.432;2023-03-03T06:57:44;101741.81;;;2.44;76.71
66742;BME280;53654;54.152;19.432;2023-03-03T07:00:48;101737.92;;;2.46;76.70
66742;BME280;53654;54.152;19.432;2023-03-03T07:03:24;101741.61;;;2.48;76.97
66742;BME280;53654;54.152;19.432;2023-03-03T07:05:54;101744.29;;;2.55;76.86
66742;BME280;53654;54.152;19.432;2023-03-03T07:08:24;101749.16;;;2.60;76.79
66742;BME280;53654;54.152;19.432;2023-03-03T07:10:53;101749.33;;;2.64;76.82
66742;BME280;53654;54.152;19.432;2023-03-03T07:13:24;101751.30;;;2.66;76.67
66742;BME280;53654;54.152;19.432;2023-03-03T07:15:54;101756.73;;;2.68;76.69
66742;BME280;53654;54.152;19.432;2023-03-03T07:18:52;101754.83;;;2.73;76.73
66742;BME280;53654;54.152;19.432;2023-03-03T07:21:21;101753.64;;;2.73;76.92
66742;BME280;53654;54.152;19.432;2023-03-03T07:23:51;101753.80;;;2.77;76.98
66742;BME280;53654;54.152;19.432;2023-03-03T07:26:26;101755.13;;;2.80;76.92
66742;BME280;53654;54.152;19.432;2023-03-03T07:31:47;101759.19;;;2.78;77.09
66742;BME280;53654;54.152;19.432;2023-03-03T07:37:10;101764.94;;;2.84;77.20
66742;BME280;53654;54.152;19.432;2023-03-03T07:39:46;101767.93;;;2.90;77.29
66742;BME280;53654;54.152;19.432;2023-03-03T07:42:39;101757.78;;;2.96;77.35
66742;BME280;53654;54.152;19.432;2023-03-03T07:45:35;101754.48;;;2.95;77.32
66742;BME280;53654;54.152;19.432;2023-03-03T07:50:41;101750.11;;;3.11;77.19
66742;BME280;53654;54.152;19.432;2023-03-03T07:53:29;101748.43;;;3.22;77.54
66742;BME280;53654;54.152;19.432;2023-03-03T07:56:11;101747.73;;;3.31;77.33
66742;BME280;53654;54.152;19.432;2023-03-03T07:58:43;101747.63;;;3.42;77.61
66742;BME280;53654;54.152;19.432;2023-03-03T08:01:43;101743.50;;;3.57;77.45
66742;BME280;53654;54.152;19.432;2023-03-03T08:04:40;101736.90;;;3.70;77.21
66742;BME280;53654;54.152;19.432;2023-03-03T08:07:22;101731.65;;;3.83;76.92
66742;BME280;53654;54.152;19.432;2023-03-03T08:09:58;101725.59;;;3.97;76.61
66742;BME280;53654;54.152;19.432;2023-03-03T08:12:30;101724.67;;;4.11;76.37
66742;BME280;53654;54.152;19.432;2023-03-03T08:15:23;101724.25;;;4.19;75.66
66742;BME280;53654;54.152;19.432;2023-03-03T08:17:53;101728.78;;;4.20;75.25
66742;BME280;53654;54.152;19.432;2023-03-03T08:22:55;101727.29;;;4.28;74.92
66742;BME280;53654;54.152;19.432;2023-03-03T08:25:24;101727.32;;;4.34;74.84
66742;BME280;53654;54.152;19.432;2023-03-03T08:27:52;101721.65;;;4.40;74.91
66742;BME280;53654;54.152;19.432;2023-03-03T08:30:20;101723.88;;;4.50;74.88
66742;BME280;53654;54.152;19.432;2023-03-03T08:32:48;101716.79;;;4.61;74.80
66742;BME280;53654;54.152;19.432;2023-03-03T08:35:16;101714.95;;;4.74;74.81
66742;BME280;53654;54.152;19.432;2023-03-03T08:37:44;101719.67;;;4.87;74.65
66742;BME280;53654;54.152;19.432;2023-03-03T08:40:12;101714.20;;;5.01;74.58
66742;BME280;53654;54.152;19.432;2023-03-03T08:42:41;101716.27;;;5.13;74.44
66742;BME280;53654;54.152;19.432;2023-03-03T08:45:09;101709.02;;;5.24;73.65
66742;BME280;53654;54.152;19.432;2023-03-03T08:47:37;101708.45;;;5.34;73.31
66742;BME280;53654;54.152;19.432;2023-03-03T08:50:05;101707.43;;;5.48;73.13
66742;BME280;53654;54.152;19.432;2023-03-03T08:52:34;101707.92;;;5.60;72.73
66742;BME280;53654;54.152;19.432;2023-03-03T08:55:02;101707.70;;;5.71;72.45
66742;BME280;53654;54.152;19.432;2023-03-03T08:57:30;101711.24;;;5.80;72.21
66742;BME280;53654;54.152;19.432;2023-03-03T08:59:58;101712.13;;;5.87;71.57
66742;BME280;53654;54.152;19.432;2023-03-03T09:02:27;101711.17;;;5.96;70.88
66742;BME280;53654;54.152;19.432;2023-03-03T09:04:55;101711.60;;;6.05;70.87
66742;BME280;53654;54.152;19.432;2023-03-03T09:07:23;101715.93;;;6.13;70.94
66742;BME280;53654;54.152;19.432;2023-03-03T09:09:51;101713.79;;;6.18;70.57
66742;BME280;53654;54.152;19.432;2023-03-03T09:12:38;101710.80;;;6.23;70.66
66742;BME280;53654;54.152;19.432;2023-03-03T09:15:27;101707.41;;;6.26;70.44
66742;BME280;53654;54.152;19.432;2023-03-03T09:20:41;101709.91;;;6.36;69.98
66742;BME280;53654;54.152;19.432;2023-03-03T09:28:58;101702.05;;;6.48;69.50
66742;BME280;53654;54.152;19.432;2023-03-03T09:31:39;101695.98;;;6.55;69.30
66742;BME280;53654;54.152;19.432;2023-03-03T09:36:45;101694.20;;;6.68;68.82
66742;BME280;53654;54.152;19.432;2023-03-03T09:39:22;101691.41;;;6.75;68.56
66742;BME280;53654;54.152;19.432;2023-03-03T09:42:35;101691.71;;;6.81;68.39
66742;BME280;53654;54.152;19.432;2023-03-03T09:47:43;101695.17;;;6.96;68.32
66742;BME280;53654;54.152;19.432;2023-03-03T09:50:47;101693.89;;;7.02;67.69
66742;BME280;53654;54.152;19.432;2023-03-03T09:56:29;101691.19;;;7.05;66.64
66742;BME280;53654;54.152;19.432;2023-03-03T09:59:13;101691.58;;;7.07;66.25
66742;BME280;53654;54.152;19.432;2023-03-03T10:07:59;101680.87;;;7.01;65.73
66742;BME280;53654;54.152;19.432;2023-03-03T10:19:14;101667.67;;;7.09;65.59
66742;BME280;53654;54.152;19.432;2023-03-03T10:21:54;101665.09;;;7.10;65.87
66742;BME280;53654;54.152;19.432;2023-03-03T10:24:39;101658.83;;;7.18;65.74
66742;BME280;53654;54.152;19.432;2023-03-03T10:30:20;101662.89;;;7.31;65.01
66742;BME280;53654;54.152;19.432;2023-03-03T10:53:34;101661.91;;;8.01;63.24
66742;BME280;53654;54.152;19.432;2023-03-03T11:07:52;101654.08;;;8.23;61.05
66742;BME280;53654;54.152;19.432;2023-03-03T11:13:18;101646.23;;;8.32;60.39
66742;BME280;53654;54.152;19.432;2023-03-03T11:26:45;101632.80;;;8.64;59.85
66742;BME280;53654;54.152;19.432;2023-03-03T11:29:32;101619.50;;;8.71;60.14
66742;BME280;53654;54.152;19.432;2023-03-03T11:39:52;101620.17;;;8.96;59.55
66742;BME280;53654;54.152;19.432;2023-03-03T11:42:31;101617.13;;;9.04;59.20
66742;BME280;53654;54.152;19.432;2023-03-03T11:45:13;101619.36;;;9.02;57.95
66742;BME280;53654;54.152;19.432;2023-03-03T11:48:01;101611.66;;;8.97;57.47
66742;BME280;53654;54.152;19.432;2023-03-03T11:56:21;101603.14;;;8.85;58.17
66742;BME280;53654;54.152;19.432;2023-03-03T11:59:00;101598.67;;;8.88;58.37
66742;BME280;53654;54.152;19.432;2023-03-03T12:01:38;101596.58;;;8.88;58.33
66742;BME280;53654;54.152;19.432;2023-03-03T12:04:12;101601.08;;;8.87;58.42
66742;BME280;53654;54.152;19.432;2023-03-03T12:07:21;101593.81;;;8.89;58.21
66742;BME280;53654;54.152;19.432;2023-03-03T12:12:37;101585.80;;;8.90;57.94
66742;BME280;53654;54.152;19.432;2023-03-03T12:15:49;101582.11;;;8.87;57.37
66742;BME280;53654;54.152;19.432;2023-03-03T12:18:45;101577.02;;;8.82;56.96
66742;BME280;53654;54.152;19.432;2023-03-03T12:21:40;101574.82;;;8.72;56.62
66742;BME280;53654;54.152;19.432;2023-03-03T12:38:39;101560.86;;;8.43;57.45
66742;BME280;53654;54.152;19.432;2023-03-03T12:41:22;101556.27;;;8.37;57.86
66742;BME280;53654;54.152;19.432;2023-03-03T12:43:55;101558.17;;;8.36;58.41
66742;BME280;53654;54.152;19.432;2023-03-03T12:47:08;101554.70;;;8.36;58.32
66742;BME280;53654;54.152;19.432;2023-03-03T12:52:49;101555.58;;;8.37;58.98
66742;BME280;53654;54.152;19.432;2023-03-03T13:03:58;101554.69;;;8.49;57.97
66742;BME280;53654;54.152;19.432;2023-03-03T13:13:02;101544.89;;;8.44;57.61
66742;BME280;53654;54.152;19.432;2023-03-03T13:17:39;101541.61;;;9.06;57.60
66742;BME280;53654;54.152;19.432;2023-03-03T13:20:43;101538.55;;;9.13;56.64
66742;BME280;53654;54.152;19.432;2023-03-03T13:23:30;101540.23;;;9.08;55.86
66742;BME280;53654;54.152;19.432;2023-03-03T13:26:07;101536.37;;;9.04;55.80
66742;BME280;53654;54.152;19.432;2023-03-03T13:31:32;101528.11;;;8.96;55.37
66742;BME280;53654;54.152;19.432;2023-03-03T13:34:02;101526.45;;;8.88;54.78
66742;BME280;53654;54.152;19.432;2023-03-03T13:37:09;101530.27;;;8.86;54.46
66742;BME280;53654;54.152;19.432;2023-03-03T13:39:45;101524.73;;;8.74;54.03
66742;BME280;53654;54.152;19.432;2023-03-03T13:42:26;101515.12;;;8.70;53.80
66742;BME280;53654;54.152;19.432;2023-03-03T13:44:56;101511.58;;;8.64;54.03
66742;BME280;53654;54.152;19.432;2023-03-03T13:53:02;101506.98;;;8.58;55.10
66742;BME280;53654;54.152;19.432;2023-03-03T13:55:39;101498.23;;;8.53;55.42
66742;BME280;53654;54.152;19.432;2023-03-03T14:00:57;101490.95;;;8.56;55.51
66742;BME280;53654;54.152;19.432;2023-03-03T14:06:14;101488.23;;;8.61;55.50
66742;BME280;53654;54.152;19.432;2023-03-03T14:11:28;101484.83;;;8.68;55.00
66742;BME280;53654;54.152;19.432;2023-03-03T14:14:36;101487.08;;;8.67;54.66
66742;BME280;53654;54.152;19.432;2023-03-03T14:25:57;101462.80;;;8.57;54.74
66742;BME280;53654;54.152;19.432;2023-03-03T14:28:28;101462.97;;;8.58;55.01
66742;BME280;53654;54.152;19.432;2023-03-03T14:30:57;101464.59;;;8.62;54.96
66742;BME280;53654;54.152;19.432;2023-03-03T14:33:36;101455.89;;;8.62;54.80
66742;BME280;53654;54.152;19.432;2023-03-03T14:36:10;101447.73;;;8.63;55.02
66742;BME280;53654;54.152;19.432;2023-03-03T14:38:40;101447.39;;;8.64;55.34
66742;BME280;53654;54.152;19.432;2023-03-03T14:43:44;101438.94;;;8.69;55.41
66742;BME280;53654;54.152;19.432;2023-03-03T14:48:55;101423.52;;;8.76;54.88
66742;BME280;53654;54.152;19.432;2023-03-03T14:51:41;101427.52;;;8.76;54.48
66742;BME280;53654;54.152;19.432;2023-03-03T14:59:27;101420.02;;;8.75;55.11
66742;BME280;53654;54.152;19.432;2023-03-03T15:04:38;101405.77;;;8.74;55.04
66742;BME280;53654;54.152;19.432;2023-03-03T15:07:36;101406.60;;;8.72;55.21
66742;BME280;53654;54.152;19.432;2023-03-03T15:10:06;101402.54;;;8.66;55.50
66742;BME280;53654;54.152;19.432;2023-03-03T15:12:36;101409.14;;;8.65;55.42
66742;BME280;53654;54.152;19.432;2023-03-03T15:17:52;101397.98;;;8.63;55.34
66742;BME280;53654;54.152;19.432;2023-03-03T15:20:51;101403.50;;;8.58;55.45
66742;BME280;53654;54.152;19.432;2023-03-03T15:26:22;101400.45;;;8.48;56.08
66742;BME280;53654;54.152;19.432;2023-03-03T15:40:19;101379.66;;;8.26;56.65
66742;BME280;53654;54.152;19.432;2023-03-03T15:50:54;101365.43;;;8.13;56.83
66742;BME280;53654;54.152;19.432;2023-03-03T16:01:27;101355.67;;;7.95;57.35
66742;BME280;53654;54.152;19.432;2023-03-03T16:04:20;101354.56;;;7.89;57.53
66742;BME280;53654;54.152;19.432;2023-03-03T16:10:07;101355.09;;;7.76;58.01
66742;BME280;53654;54.152;19.432;2023-03-03T16:12:54;101351.67;;;7.66;58.22
66742;BME280;53654;54.152;19.432;2023-03-03T16:18:19;101342.18;;;7.58;57.95
66742;BME280;53654;54.152;19.432;2023-03-03T16:23:48;101338.59;;;7.49;57.47
66742;BME280;53654;54.152;19.432;2023-03-03T16:31:56;101339.45;;;7.36;57.45
66742;BME280;53654;54.152;19.432;2023-03-03T16:34:34;101341.50;;;7.33;57.49
66742;BME280;53654;54.152;19.432;2023-03-03T16:37:30;101336.94;;;7.30;57.51
66742;BME280;53654;54.152;19.432;2023-03-03T16:40:10;101332.52;;;7.24;57.80
66742;BME280;53654;54.152;19.432;2023-03-03T16:42:42;101327.27;;;7.21;58.05
66742;BME280;53654;54.152;19.432;2023-03-03T16:45:26;101329.81;;;7.17;58.12
66742;BME280;53654;54.152;19.432;2023-03-03T16:56:43;101320.63;;;6.95;58.85
66742;BME280;53654;54.152;19.432;2023-03-03T17:05:19;101321.04;;;6.76;59.47
66742;BME280;53654;54.152;19.432;2023-03-03T17:08:19;101312.74;;;6.68;59.83
66742;BME280;53654;54.152;19.432;2023-03-03T17:16:34;101306.60;;;6.54;60.21
66742;BME280;53654;54.152;19.432;2023-03-03T17:19:48;101307.15;;;6.45;60.24
66742;BME280;53654;54.152;19.432;2023-03-03T17:22:48;101307.19;;;6.37;60.05
66742;BME280;53654;54.152;19.432;2023-03-03T17:25:19;101298.61;;;6.32;60.06
66742;BME280;53654;54.152;19.432;2023-03-03T17:31:07;101305.41;;;6.25;59.60
66742;BME280;53654;54.152;19.432;2023-03-03T17:56:00;101292.15;;;6.00;61.06
66742;BME280;53654;54.152;19.432;2023-03-03T18:04:42;101290.31;;;5.87;61.24
66742;BME280;53654;54.152;19.432;2023-03-03T18:26:54;101277.02;;;5.56;60.85
66742;BME280;53654;54.152;19.432;2023-03-03T18:29:25;101280.34;;;5.57;60.97
66742;BME280;53654;54.152;19.432;2023-03-03T18:44:37;101259.99;;;5.43;61.10
66742;BME280;53654;54.152;19.432;2023-03-03T18:47:06;101265.36;;;5.43;61.13
66742;BME280;53654;54.152;19.432;2023-03-03T18:52:25;101263.75;;;5.40;61.41
66742;BME280;53654;54.152;19.432;2023-03-03T18:57:28;101263.41;;;5.33;62.06
66742;BME280;53654;54.152;19.432;2023-03-03T19:00:29;101263.14;;;5.28;62.55
66742;BME280;53654;54.152;19.432;2023-03-03T19:02:58;101261.57;;;5.20;63.32